sensor_id;sensor_type;location;lat;lon;timestamp;P1;durP1;ratioP1;P2;durP2;ratioP2
41261;SDS011;29629;52.532;13.352;2023-05-10T00:02:00;101.38;;;71.53;;
41261;SDS011;29629;52.532;13.352;2023-05-10T00:04:26;99.50;;;71.13;;
41261;SDS011;29629;52.532;13.352;2023-05-10T00:06:53;103.00;;;71.88;;
41261;SDS011;29629;52.532;13.352;2023-05-10T00:09:20;101.93;;;71.95;;
41261;SDS011;29629;52.532;13.352;2023-05-10T00:11:47;102.22;;;71.75;;
41261;SDS011;29629;52.532;13.352;2023-05-10T00:14:16;98.97;;;71.10;;
41261;SDS011;29629;52.532;13.352;2023-05-10T00:16:43;98.78;;;71.13;;
41261;SDS011;29629;52.532;13.352;2023-05-10T00:19:10;102.18;;;73.20;;
41261;SDS011;29629;52.532;13.352;2023-05-10T00:21:37;102.13;;;72.28;;
41261;SDS011;29629;52.532;13.352;2023-05-10T00:24:04;98.07;;;71.40;;
41261;SDS011;29629;52.532;13.352;2023-05-10T00:26:31;98.38;;;71.45;;
41261;SDS011;29629;52.532;13.352;2023-05-10T00:28:58;112.10;;;75.45;;
41261;SDS011;29629;52.532;13.352;2023-05-10T00:31:26;101.50;;;71.50;;
41261;SDS011;29629;52.532;13.352;2023-05-10T00:33:54;104.47;;;72.15;;
41261;SDS011;29629;52.532;13.352;2023-05-10T00:36:21;102.55;;;72.18;;
41261;SDS011;29629;52.532;13.352;2023-05-10T00:38:48;102.03;;;71.80;;
41261;SDS011;29629;52.532;13.352;2023-05-10T00:41:15;101.07;;;71.28;;
41261;SDS011;29629;52.532;13.352;2023-05-10T00:43:42;100.82;;;71.22;;
41261;SDS011;29629;52.532;13.352;2023-05-10T00:46:09;103.78;;;71.20;;
41261;SDS011;29629;52.532;13.352;2023-05-10T00:48:38;98.40;;;70.95;;
41261;SDS011;29629;52.532;13.352;2023-05-10T00:51:05;103.75;;;71.93;;
41261;SDS011;29629;52.532;13.352;2023-05-10T00:53:32;98.88;;;71.03;;
41261;SDS011;29629;52.532;13.352;2023-05-10T00:56:00;100.50;;;70.80;;
41261;SDS011;29629;52.532;13.352;2023-05-10T00:58:28;98.88;;;70.47;;
41261;SDS011;29629;52.532;13.352;2023-05-10T01:00:56;100.55;;;70.40;;
41261;SDS011;29629;52.532;13.352;2023-05-10T01:03:24;101.25;;;70.95;;
41261;SDS011;29629;52.532;13.352;2023-05-10T01:05:52;100.43;;;70.32;;
41261;SDS011;29629;52.532;13.352;2023-05-10T01:08:20;101.40;;;70.38;;
41261;SDS011;29629;52.532;13.352;2023-05-10T01:10:47;103.90;;;71.32;;
41261;SDS011;29629;52.532;13.352;2023-05-10T01:13:16;97.10;;;70.13;;
41261;SDS011;29629;52.532;13.352;2023-05-10T01:15:51;96.85;;;69.68;;
41261;SDS011;29629;52.532;13.352;2023-05-10T01:18:18;99.95;;;71.72;;
41261;SDS011;29629;52.532;13.352;2023-05-10T01:20:48;96.55;;;69.68;;
41261;SDS011;29629;52.532;13.352;2023-05-10T01:23:44;99.40;;;70.00;;
41261;SDS011;29629;52.532;13.352;2023-05-10T01:29:36;92.38;;;67.70;;
41261;SDS011;29629;52.532;13.352;2023-05-10T01:32:22;100.32;;;70.57;;
41261;SDS011;29629;52.532;13.352;2023-05-10T01:34:54;104.82;;;73.82;;
41261;SDS011;29629;52.532;13.352;2023-05-10T01:37:29;104.82;;;72.43;;
41261;SDS011;29629;52.532;13.352;2023-05-10T01:40:03;100.50;;;71.05;;
41261;SDS011;29629;52.532;13.352;2023-05-10T01:42:39;100.32;;;71.03;;
41261;SDS011;29629;52.532;13.352;2023-05-10T01:45:12;102.03;;;71.55;;
41261;SDS011;29629;52.532;13.352;2023-05-10T01:47:46;92.68;;;68.43;;
41261;SDS011;29629;52.532;13.352;2023-05-10T01:50:17;102.57;;;70.78;;
41261;SDS011;29629;52.532;13.352;2023-05-10T01:52:47;95.50;;;69.30;;
41261;SDS011;29629;52.532;13.352;2023-05-10T01:55:18;106.65;;;71.90;;
41261;SDS011;29629;52.532;13.352;2023-05-10T01:57:47;99.28;;;69.32;;
41261;SDS011;29629;52.532;13.352;2023-05-10T02:00:22;97.70;;;69.95;;
41261;SDS011;29629;52.532;13.352;2023-05-10T02:02:51;94.28;;;67.68;;
41261;SDS011;29629;52.532;13.352;2023-05-10T02:05:20;102.18;;;70.75;;
41261;SDS011;29629;52.532;13.352;2023-05-10T02:07:49;102.35;;;71.45;;
41261;SDS011;29629;52.532;13.352;2023-05-10T02:10:16;104.22;;;71.45;;
41261;SDS011;29629;52.532;13.352;2023-05-10T02:12:45;91.47;;;67.45;;
41261;SDS011;29629;52.532;13.352;2023-05-10T02:15:16;99.65;;;70.25;;
41261;SDS011;29629;52.532;13.352;2023-05-10T02:17:47;97.57;;;69.00;;
41261;SDS011;29629;52.532;13.352;2023-05-10T02:20:16;99.15;;;69.60;;
41261;SDS011;29629;52.532;13.352;2023-05-10T02:22:45;96.57;;;68.90;;
41261;SDS011;29629;52.532;13.352;2023-05-10T02:25:15;106.78;;;73.15;;
41261;SDS011;29629;52.532;13.352;2023-05-10T02:27:43;102.15;;;71.80;;
41261;SDS011;29629;52.532;13.352;2023-05-10T02:30:12;102.22;;;71.63;;
41261;SDS011;29629;52.532;13.352;2023-05-10T02:32:40;100.03;;;70.45;;
41261;SDS011;29629;52.532;13.352;2023-05-10T02:35:08;98.25;;;69.38;;
41261;SDS011;29629;52.532;13.352;2023-05-10T02:37:37;106.70;;;72.70;;
41261;SDS011;29629;52.532;13.352;2023-05-10T02:40:06;93.20;;;68.32;;
41261;SDS011;29629;52.532;13.352;2023-05-10T02:42:35;98.38;;;69.63;;
41261;SDS011;29629;52.532;13.352;2023-05-10T02:45:07;100.45;;;69.72;;
41261;SDS011;29629;52.532;13.352;2023-05-10T02:47:37;98.28;;;69.45;;
41261;SDS011;29629;52.532;13.352;2023-05-10T02:50:05;101.43;;;70.20;;
41261;SDS011;29629;52.532;13.352;2023-05-10T02:52:36;98.40;;;69.65;;
41261;SDS011;29629;52.532;13.352;2023-05-10T02:55:09;102.32;;;70.68;;
41261;SDS011;29629;52.532;13.352;2023-05-10T02:57:41;97.18;;;69.15;;
41261;SDS011;29629;52.532;13.352;2023-05-10T03:00:11;98.53;;;69.85;;
41261;SDS011;29629;52.532;13.352;2023-05-10T03:02:38;108.85;;;72.70;;
41261;SDS011;29629;52.532;13.352;2023-05-10T03:05:05;94.57;;;67.13;;
41261;SDS011;29629;52.532;13.352;2023-05-10T03:07:33;98.28;;;69.53;;
41261;SDS011;29629;52.532;13.352;2023-05-10T03:10:01;102.00;;;70.57;;
41261;SDS011;29629;52.532;13.352;2023-05-10T03:12:31;102.57;;;70.43;;
41261;SDS011;29629;52.532;13.352;2023-05-10T03:15:09;98.53;;;69.13;;
41261;SDS011;29629;52.532;13.352;2023-05-10T03:17:45;97.72;;;68.60;;
41261;SDS011;29629;52.532;13.352;2023-05-10T03:20:19;92.03;;;66.80;;
41261;SDS011;29629;52.532;13.352;2023-05-10T03:22:50;95.80;;;68.68;;
41261;SDS011;29629;52.532;13.352;2023-05-10T03:25:21;100.85;;;69.40;;
41261;SDS011;29629;52.532;13.352;2023-05-10T03:27:49;95.72;;;68.63;;
41261;SDS011;29629;52.532;13.352;2023-05-10T03:30:16;97.80;;;68.28;;
41261;SDS011;29629;52.532;13.352;2023-05-10T03:32:44;89.57;;;66.40;;
41261;SDS011;29629;52.532;13.352;2023-05-10T03:35:12;100.00;;;68.93;;
41261;SDS011;29629;52.532;13.352;2023-05-10T03:37:39;98.15;;;68.55;;
41261;SDS011;29629;52.532;13.352;2023-05-10T03:40:06;94.95;;;67.78;;
41261;SDS011;29629;52.532;13.352;2023-05-10T03:42:36;92.05;;;67.00;;
41261;SDS011;29629;52.532;13.352;2023-05-10T03:45:03;96.15;;;68.18;;
41261;SDS011;29629;52.532;13.352;2023-05-10T03:47:31;97.75;;;68.35;;
41261;SDS011;29629;52.532;13.352;2023-05-10T03:49:58;98.82;;;68.05;;
41261;SDS011;29629;52.532;13.352;2023-05-10T03:52:25;99.07;;;69.55;;
41261;SDS011;29629;52.532;13.352;2023-05-10T03:54:52;97.75;;;68.47;;
41261;SDS011;29629;52.532;13.352;2023-05-10T03:57:18;99.50;;;69.60;;
41261;SDS011;29629;52.532;13.352;2023-05-10T03:59:47;97.85;;;68.68;;
41261;SDS011;29629;52.532;13.352;2023-05-10T04:02:14;101.03;;;68.80;;
41261;SDS011;29629;52.532;13.352;2023-05-10T04:04:40;97.90;;;68.38;;
41261;SDS011;29629;52.532;13.352;2023-05-10T04:07:08;99.75;;;68.88;;
41261;SDS011;29629;52.532;13.352;2023-05-10T04:09:35;95.68;;;66.53;;
41261;SDS011;29629;52.532;13.352;2023-05-10T04:12:02;96.82;;;68.45;;
41261;SDS011;29629;52.532;13.352;2023-05-10T04:14:29;97.97;;;68.75;;
41261;SDS011;29629;52.532;13.352;2023-05-10T04:16:57;96.03;;;67.50;;
41261;SDS011;29629;52.532;13.352;2023-05-10T04:19:28;101.20;;;69.65;;
41261;SDS011;29629;52.532;13.352;2023-05-10T04:21:56;98.28;;;69.05;;
41261;SDS011;29629;52.532;13.352;2023-05-10T04:24:23;100.50;;;67.75;;
41261;SDS011;29629;52.532;13.352;2023-05-10T04:26:50;99.93;;;69.82;;
41261;SDS011;29629;52.532;13.352;2023-05-10T04:29:17;102.53;;;70.28;;
41261;SDS011;29629;52.532;13.352;2023-05-10T04:31:44;96.47;;;67.97;;
41261;SDS011;29629;52.532;13.352;2023-05-10T04:34:12;100.53;;;68.85;;
41261;SDS011;29629;52.532;13.352;2023-05-10T04:36:39;94.88;;;66.43;;
41261;SDS011;29629;52.532;13.352;2023-05-10T04:39:06;100.63;;;69.90;;
41261;SDS011;29629;52.532;13.352;2023-05-10T04:41:34;98.03;;;68.85;;
41261;SDS011;29629;52.532;13.352;2023-05-10T04:44:03;102.43;;;70.30;;
41261;SDS011;29629;52.532;13.352;2023-05-10T04:46:30;98.80;;;68.85;;
41261;SDS011;29629;52.532;13.352;2023-05-10T04:48:57;93.13;;;67.57;;
41261;SDS011;29629;52.532;13.352;2023-05-10T04:51:26;100.55;;;69.85;;
41261;SDS011;29629;52.532;13.352;2023-05-10T04:53:52;102.32;;;69.82;;
41261;SDS011;29629;52.532;13.352;2023-05-10T04:56:20;101.55;;;70.95;;
41261;SDS011;29629;52.532;13.352;2023-05-10T04:58:47;101.63;;;69.80;;
41261;SDS011;29629;52.532;13.352;2023-05-10T05:01:14;95.05;;;68.30;;
41261;SDS011;29629;52.532;13.352;2023-05-10T05:03:41;100.53;;;69.57;;
41261;SDS011;29629;52.532;13.352;2023-05-10T05:06:08;101.22;;;75.90;;
41261;SDS011;29629;52.532;13.352;2023-05-10T05:08:36;96.82;;;68.65;;
41261;SDS011;29629;52.532;13.352;2023-05-10T05:11:03;95.25;;;68.25;;
41261;SDS011;29629;52.532;13.352;2023-05-10T05:13:30;97.97;;;69.38;;
41261;SDS011;29629;52.532;13.352;2023-05-10T05:15:59;103.25;;;71.55;;
41261;SDS011;29629;52.532;13.352;2023-05-10T05:18:27;97.68;;;69.38;;
41261;SDS011;29629;52.532;13.352;2023-05-10T05:20:54;104.45;;;71.60;;
41261;SDS011;29629;52.532;13.352;2023-05-10T05:23:21;106.45;;;72.35;;
41261;SDS011;29629;52.532;13.352;2023-05-10T05:25:52;92.80;;;68.35;;
41261;SDS011;29629;52.532;13.352;2023-05-10T05:28:19;97.82;;;69.53;;
41261;SDS011;29629;52.532;13.352;2023-05-10T05:30:46;98.93;;;69.32;;
41261;SDS011;29629;52.532;13.352;2023-05-10T05:33:13;102.88;;;70.75;;
41261;SDS011;29629;52.532;13.352;2023-05-10T05:35:41;95.80;;;68.65;;
41261;SDS011;29629;52.532;13.352;2023-05-10T05:38:12;100.72;;;70.53;;
41261;SDS011;29629;52.532;13.352;2023-05-10T05:40:39;101.30;;;70.68;;
41261;SDS011;29629;52.532;13.352;2023-05-10T05:43:08;96.95;;;69.50;;
41261;SDS011;29629;52.532;13.352;2023-05-10T05:45:34;100.95;;;70.80;;
41261;SDS011;29629;52.532;13.352;2023-05-10T05:48:01;99.43;;;70.32;;
41261;SDS011;29629;52.532;13.352;2023-05-10T05:50:28;96.72;;;68.85;;
41261;SDS011;29629;52.532;13.352;2023-05-10T05:52:56;116.15;;;75.88;;
41261;SDS011;29629;52.532;13.352;2023-05-10T05:55:22;110.90;;;73.88;;
41261;SDS011;29629;52.532;13.352;2023-05-10T05:57:50;100.18;;;70.65;;
41261;SDS011;29629;52.532;13.352;2023-05-10T06:00:19;120.35;;;77.30;;
41261;SDS011;29629;52.532;13.352;2023-05-10T06:02:46;123.43;;;77.55;;
41261;SDS011;29629;52.532;13.352;2023-05-10T06:05:13;101.07;;;71.00;;
41261;SDS011;29629;52.532;13.352;2023-05-10T06:07:40;96.10;;;70.05;;
41261;SDS011;29629;52.532;13.352;2023-05-10T06:10:07;98.13;;;70.38;;
41261;SDS011;29629;52.532;13.352;2023-05-10T06:12:35;97.10;;;69.57;;
41261;SDS011;29629;52.532;13.352;2023-05-10T06:15:02;99.30;;;70.68;;
41261;SDS011;29629;52.532;13.352;2023-05-10T06:17:31;101.40;;;71.40;;
41261;SDS011;29629;52.532;13.352;2023-05-10T06:19:58;98.30;;;69.85;;
41261;SDS011;29629;52.532;13.352;2023-05-10T06:22:25;92.05;;;68.78;;
41261;SDS011;29629;52.532;13.352;2023-05-10T06:24:52;101.03;;;71.05;;
41261;SDS011;29629;52.532;13.352;2023-05-10T06:27:19;100.70;;;71.28;;
41261;SDS011;29629;52.532;13.352;2023-05-10T06:29:46;101.38;;;71.03;;
41261;SDS011;29629;52.532;13.352;2023-05-10T06:32:13;98.00;;;70.63;;
41261;SDS011;29629;52.532;13.352;2023-05-10T06:34:41;99.53;;;71.13;;
41261;SDS011;29629;52.532;13.352;2023-05-10T06:37:08;101.90;;;71.88;;
41261;SDS011;29629;52.532;13.352;2023-05-10T06:39:35;105.38;;;73.22;;
41261;SDS011;29629;52.532;13.352;2023-05-10T06:42:03;105.07;;;73.05;;
41261;SDS011;29629;52.532;13.352;2023-05-10T06:44:30;101.80;;;72.28;;
41261;SDS011;29629;52.532;13.352;2023-05-10T06:46:57;101.80;;;71.95;;
41261;SDS011;29629;52.532;13.352;2023-05-10T06:49:24;101.60;;;71.68;;
41261;SDS011;29629;52.532;13.352;2023-05-10T06:51:52;94.88;;;70.28;;
41261;SDS011;29629;52.532;13.352;2023-05-10T06:54:20;98.55;;;71.53;;
41261;SDS011;29629;52.532;13.352;2023-05-10T06:56:48;99.40;;;71.45;;
41261;SDS011;29629;52.532;13.352;2023-05-10T06:59:15;99.50;;;73.03;;
41261;SDS011;29629;52.532;13.352;2023-05-10T07:01:44;100.68;;;71.85;;
41261;SDS011;29629;52.532;13.352;2023-05-10T07:04:11;96.32;;;71.18;;
41261;SDS011;29629;52.532;13.352;2023-05-10T07:06:38;99.95;;;72.43;;
41261;SDS011;29629;52.532;13.352;2023-05-10T07:09:07;99.63;;;73.95;;
41261;SDS011;29629;52.532;13.352;2023-05-10T07:11:34;98.45;;;73.05;;
41261;SDS011;29629;52.532;13.352;2023-05-10T07:14:02;105.00;;;74.45;;
41261;SDS011;29629;52.532;13.352;2023-05-10T07:16:29;99.03;;;72.47;;
41261;SDS011;29629;52.532;13.352;2023-05-10T07:18:56;115.95;;;81.97;;
41261;SDS011;29629;52.532;13.352;2023-05-10T07:21:23;103.10;;;74.53;;
41261;SDS011;29629;52.532;13.352;2023-05-10T07:23:53;100.82;;;73.07;;
41261;SDS011;29629;52.532;13.352;2023-05-10T07:26:21;98.50;;;74.65;;
41261;SDS011;29629;52.532;13.352;2023-05-10T07:28:49;104.65;;;75.85;;
41261;SDS011;29629;52.532;13.352;2023-05-10T07:31:16;103.57;;;74.60;;
41261;SDS011;29629;52.532;13.352;2023-05-10T07:33:43;101.13;;;73.20;;
41261;SDS011;29629;52.532;13.352;2023-05-10T07:36:09;104.03;;;74.90;;
41261;SDS011;29629;52.532;13.352;2023-05-10T07:38:36;95.00;;;72.75;;
41261;SDS011;29629;52.532;13.352;2023-05-10T07:41:04;98.53;;;73.22;;
41261;SDS011;29629;52.532;13.352;2023-05-10T07:43:33;99.10;;;73.82;;
41261;SDS011;29629;52.532;13.352;2023-05-10T07:45:59;96.40;;;73.65;;
41261;SDS011;29629;52.532;13.352;2023-05-10T07:48:26;85.75;;;70.15;;
41261;SDS011;29629;52.532;13.352;2023-05-10T07:50:53;95.63;;;73.22;;
41261;SDS011;29629;52.532;13.352;2023-05-10T07:53:20;93.93;;;72.35;;
41261;SDS011;29629;52.532;13.352;2023-05-10T07:55:49;90.53;;;72.22;;
41261;SDS011;29629;52.532;13.352;2023-05-10T07:58:17;96.50;;;73.75;;
41261;SDS011;29629;52.532;13.352;2023-05-10T08:00:45;100.63;;;75.05;;
41261;SDS011;29629;52.532;13.352;2023-05-10T08:03:13;103.35;;;75.00;;
41261;SDS011;29629;52.532;13.352;2023-05-10T08:05:40;103.97;;;75.47;;
41261;SDS011;29629;52.532;13.352;2023-05-10T08:08:07;93.55;;;73.65;;
41261;SDS011;29629;52.532;13.352;2023-05-10T08:10:34;98.43;;;74.72;;
41261;SDS011;29629;52.532;13.352;2023-05-10T08:13:01;100.90;;;75.22;;
41261;SDS011;29629;52.532;13.352;2023-05-10T08:15:28;101.47;;;75.93;;
41261;SDS011;29629;52.532;13.352;2023-05-10T08:17:56;99.35;;;75.28;;
41261;SDS011;29629;52.532;13.352;2023-05-10T08:20:23;99.07;;;75.72;;
41261;SDS011;29629;52.532;13.352;2023-05-10T08:22:50;99.53;;;75.78;;
41261;SDS011;29629;52.532;13.352;2023-05-10T08:25:17;94.25;;;73.93;;
41261;SDS011;29629;52.532;13.352;2023-05-10T08:27:44;101.57;;;77.22;;
41261;SDS011;29629;52.532;13.352;2023-05-10T08:30:11;107.30;;;78.90;;
41261;SDS011;29629;52.532;13.352;2023-05-10T08:32:38;106.07;;;78.78;;
41261;SDS011;29629;52.532;13.352;2023-05-10T08:35:07;105.03;;;77.13;;
41261;SDS011;29629;52.532;13.352;2023-05-10T08:37:34;100.63;;;75.95;;
41261;SDS011;29629;52.532;13.352;2023-05-10T08:40:01;98.93;;;79.95;;
41261;SDS011;29629;52.532;13.352;2023-05-10T08:42:28;96.72;;;76.57;;
41261;SDS011;29629;52.532;13.352;2023-05-10T08:44:57;95.47;;;76.43;;
41261;SDS011;29629;52.532;13.352;2023-05-10T08:47:25;89.03;;;74.97;;
41261;SDS011;29629;52.532;13.352;2023-05-10T08:49:52;94.72;;;77.60;;
41261;SDS011;29629;52.532;13.352;2023-05-10T08:52:22;89.45;;;75.95;;
41261;SDS011;29629;52.532;13.352;2023-05-10T08:54:51;86.22;;;74.43;;
41261;SDS011;29629;52.532;13.352;2023-05-10T08:57:18;79.07;;;70.10;;
41261;SDS011;29629;52.532;13.352;2023-05-10T08:59:46;74.38;;;66.55;;
41261;SDS011;29629;52.532;13.352;2023-05-10T09:02:13;65.55;;;57.67;;
41261;SDS011;29629;52.532;13.352;2023-05-10T09:04:40;63.15;;;56.45;;
41261;SDS011;29629;52.532;13.352;2023-05-10T09:07:07;55.33;;;50.25;;
41261;SDS011;29629;52.532;13.352;2023-05-10T09:09:35;131.40;;;123.32;;
41261;SDS011;29629;52.532;13.352;2023-05-10T09:12:03;157.50;;;148.93;;
41261;SDS011;29629;52.532;13.352;2023-05-10T09:14:31;327.17;;;312.83;;
41261;SDS011;29629;52.532;13.352;2023-05-10T09:17:00;306.67;;;293.10;;
41261;SDS011;29629;52.532;13.352;2023-05-10T09:19:27;300.90;;;287.08;;
41261;SDS011;29629;52.532;13.352;2023-05-10T09:21:54;503.70;;;480.88;;
41261;SDS011;29629;52.532;13.352;2023-05-10T09:24:24;455.83;;;434.08;;
41261;SDS011;29629;52.532;13.352;2023-05-10T09:26:54;408.77;;;390.73;;
41261;SDS011;29629;52.532;13.352;2023-05-10T09:29:23;367.42;;;350.85;;
41261;SDS011;29629;52.532;13.352;2023-05-10T09:31:50;339.17;;;323.90;;
41261;SDS011;29629;52.532;13.352;2023-05-10T09:34:20;355.15;;;338.90;;
41261;SDS011;29629;52.532;13.352;2023-05-10T09:36:55;434.73;;;414.70;;
41261;SDS011;29629;52.532;13.352;2023-05-10T09:39:32;563.38;;;536.53;;
41261;SDS011;29629;52.532;13.352;2023-05-10T09:42:03;558.13;;;532.42;;
41261;SDS011;29629;52.532;13.352;2023-05-10T09:44:31;508.05;;;484.23;;
41261;SDS011;29629;52.532;13.352;2023-05-10T09:46:58;531.00;;;505.95;;
41261;SDS011;29629;52.532;13.352;2023-05-10T09:49:26;508.75;;;485.02;;
41261;SDS011;29629;52.532;13.352;2023-05-10T09:52:02;426.58;;;406.70;;
41261;SDS011;29629;52.532;13.352;2023-05-10T09:54:30;381.00;;;363.73;;
41261;SDS011;29629;52.532;13.352;2023-05-10T09:56:57;333.17;;;318.67;;
41261;SDS011;29629;52.532;13.352;2023-05-10T09:59:26;412.25;;;393.48;;
41261;SDS011;29629;52.532;13.352;2023-05-10T10:01:55;461.48;;;439.67;;
41261;SDS011;29629;52.532;13.352;2023-05-10T10:04:23;441.95;;;421.27;;
41261;SDS011;29629;52.532;13.352;2023-05-10T10:07:00;469.95;;;448.02;;
41261;SDS011;29629;52.532;13.352;2023-05-10T10:09:28;446.27;;;425.15;;
41261;SDS011;29629;52.532;13.352;2023-05-10T10:11:55;448.10;;;427.20;;
41261;SDS011;29629;52.532;13.352;2023-05-10T10:14:22;481.38;;;459.13;;
41261;SDS011;29629;52.532;13.352;2023-05-10T10:16:52;409.20;;;390.70;;
41261;SDS011;29629;52.532;13.352;2023-05-10T10:19:20;394.58;;;376.73;;
41261;SDS011;29629;52.532;13.352;2023-05-10T10:21:48;455.35;;;434.35;;
41261;SDS011;29629;52.532;13.352;2023-05-10T10:24:16;521.15;;;496.38;;
41261;SDS011;29629;52.532;13.352;2023-05-10T10:26:43;545.33;;;519.83;;
41261;SDS011;29629;52.532;13.352;2023-05-10T10:29:16;478.27;;;455.85;;
41261;SDS011;29629;52.532;13.352;2023-05-10T10:31:51;433.95;;;413.90;;
41261;SDS011;29629;52.532;13.352;2023-05-10T10:34:28;388.05;;;370.25;;
41261;SDS011;29629;52.532;13.352;2023-05-10T10:36:56;392.05;;;374.13;;
41261;SDS011;29629;52.532;13.352;2023-05-10T10:39:24;436.75;;;416.25;;
41261;SDS011;29629;52.532;13.352;2023-05-10T10:41:52;461.95;;;439.88;;
41261;SDS011;29629;52.532;13.352;2023-05-10T10:47:23;490.52;;;467.42;;
41261;SDS011;29629;52.532;13.352;2023-05-10T10:50:02;436.65;;;416.23;;
41261;SDS011;29629;52.532;13.352;2023-05-10T10:52:31;487.92;;;464.80;;
41261;SDS011;29629;52.532;13.352;2023-05-10T10:55:00;486.00;;;462.38;;
41261;SDS011;29629;52.532;13.352;2023-05-10T10:57:30;419.65;;;400.25;;
41261;SDS011;29629;52.532;13.352;2023-05-10T11:00:18;377.90;;;360.90;;
41261;SDS011;29629;52.532;13.352;2023-05-10T11:02:55;478.23;;;455.40;;
41261;SDS011;29629;52.532;13.352;2023-05-10T11:08:08;557.85;;;532.00;;
41261;SDS011;29629;52.532;13.352;2023-05-10T11:10:49;545.83;;;521.13;;
41261;SDS011;29629;52.532;13.352;2023-05-10T11:13:26;564.63;;;538.75;;
41261;SDS011;29629;52.532;13.352;2023-05-10T11:15:55;476.25;;;454.17;;
41261;SDS011;29629;52.532;13.352;2023-05-10T11:18:26;509.95;;;485.90;;
41261;SDS011;29629;52.532;13.352;2023-05-10T11:20:55;525.83;;;501.08;;
41261;SDS011;29629;52.532;13.352;2023-05-10T11:23:29;523.78;;;498.67;;
41261;SDS011;29629;52.532;13.352;2023-05-10T11:25:58;514.20;;;490.50;;
41261;SDS011;29629;52.532;13.352;2023-05-10T11:28:26;461.13;;;439.58;;
41261;SDS011;29629;52.532;13.352;2023-05-10T11:30:53;426.27;;;406.45;;
41261;SDS011;29629;52.532;13.352;2023-05-10T11:33:21;429.30;;;409.25;;
41261;SDS011;29629;52.532;13.352;2023-05-10T11:35:49;401.60;;;382.67;;
41261;SDS011;29629;52.532;13.352;2023-05-10T11:38:16;431.90;;;411.95;;
41261;SDS011;29629;52.532;13.352;2023-05-10T11:40:43;437.48;;;416.65;;
41261;SDS011;29629;52.532;13.352;2023-05-10T11:43:10;464.17;;;442.33;;
41261;SDS011;29629;52.532;13.352;2023-05-10T11:45:37;487.85;;;464.70;;
41261;SDS011;29629;52.532;13.352;2023-05-10T11:48:06;540.55;;;515.38;;
41261;SDS011;29629;52.532;13.352;2023-05-10T11:50:33;530.17;;;506.20;;
41261;SDS011;29629;52.532;13.352;2023-05-10T11:53:01;574.15;;;547.72;;
41261;SDS011;29629;52.532;13.352;2023-05-10T11:55:28;529.30;;;505.35;;
41261;SDS011;29629;52.532;13.352;2023-05-10T11:58:01;515.75;;;491.38;;
41261;SDS011;29629;52.532;13.352;2023-05-10T12:00:29;407.73;;;388.48;;
41261;SDS011;29629;52.532;13.352;2023-05-10T12:02:56;332.17;;;317.10;;
41261;SDS011;29629;52.532;13.352;2023-05-10T12:05:23;475.45;;;453.23;;
41261;SDS011;29629;52.532;13.352;2023-05-10T12:07:51;562.00;;;536.35;;
41261;SDS011;29629;52.532;13.352;2023-05-10T12:10:26;553.17;;;529.13;;
41261;SDS011;29629;52.532;13.352;2023-05-10T12:12:53;509.67;;;485.50;;
41261;SDS011;29629;52.532;13.352;2023-05-10T12:15:21;500.67;;;477.63;;
41261;SDS011;29629;52.532;13.352;2023-05-10T12:17:48;544.55;;;519.50;;
41261;SDS011;29629;52.532;13.352;2023-05-10T12:20:16;547.35;;;522.83;;
41261;SDS011;29629;52.532;13.352;2023-05-10T12:22:45;411.23;;;392.13;;
41261;SDS011;29629;52.532;13.352;2023-05-10T12:25:12;367.20;;;350.50;;
41261;SDS011;29629;52.532;13.352;2023-05-10T12:27:41;399.92;;;381.73;;
41261;SDS011;29629;52.532;13.352;2023-05-10T12:30:13;401.92;;;383.58;;
41261;SDS011;29629;52.532;13.352;2023-05-10T12:32:45;395.23;;;376.83;;
41261;SDS011;29629;52.532;13.352;2023-05-10T12:35:12;419.55;;;400.27;;
41261;SDS011;29629;52.532;13.352;2023-05-10T12:37:39;451.23;;;429.73;;
41261;SDS011;29629;52.532;13.352;2023-05-10T12:40:06;362.35;;;345.88;;
41261;SDS011;29629;52.532;13.352;2023-05-10T12:42:34;378.45;;;360.33;;
41261;SDS011;29629;52.532;13.352;2023-05-10T12:45:03;371.85;;;354.70;;
41261;SDS011;29629;52.532;13.352;2023-05-10T12:47:31;358.90;;;342.80;;
41261;SDS011;29629;52.532;13.352;2023-05-10T12:49:59;325.88;;;311.30;;
41261;SDS011;29629;52.532;13.352;2023-05-10T12:52:27;254.25;;;242.05;;
41261;SDS011;29629;52.532;13.352;2023-05-10T12:54:54;256.05;;;244.48;;
41261;SDS011;29629;52.532;13.352;2023-05-10T12:57:21;265.15;;;252.65;;
41261;SDS011;29629;52.532;13.352;2023-05-10T12:59:48;225.73;;;214.90;;
41261;SDS011;29629;52.532;13.352;2023-05-10T13:02:17;225.43;;;214.35;;
41261;SDS011;29629;52.532;13.352;2023-05-10T13:04:45;324.92;;;310.10;;
41261;SDS011;29629;52.532;13.352;2023-05-10T13:07:12;350.77;;;334.83;;
41261;SDS011;29629;52.532;13.352;2023-05-10T13:09:39;316.13;;;301.88;;
41261;SDS011;29629;52.532;13.352;2023-05-10T13:12:06;150.13;;;141.73;;
41261;SDS011;29629;52.532;13.352;2023-05-10T13:14:33;83.03;;;74.47;;
41261;SDS011;29629;52.532;13.352;2023-05-10T13:17:00;84.45;;;75.90;;
41261;SDS011;29629;52.532;13.352;2023-05-10T13:19:28;79.13;;;70.93;;
41261;SDS011;29629;52.532;13.352;2023-05-10T13:21:55;79.25;;;70.88;;
41261;SDS011;29629;52.532;13.352;2023-05-10T13:24:21;85.35;;;76.03;;
41261;SDS011;29629;52.532;13.352;2023-05-10T13:26:48;90.70;;;81.18;;
41261;SDS011;29629;52.532;13.352;2023-05-10T13:29:15;96.90;;;86.40;;
41261;SDS011;29629;52.532;13.352;2023-05-10T13:31:43;104.20;;;89.72;;
41261;SDS011;29629;52.532;13.352;2023-05-10T13:34:10;93.88;;;83.88;;
41261;SDS011;29629;52.532;13.352;2023-05-10T13:36:38;94.15;;;83.97;;
41261;SDS011;29629;52.532;13.352;2023-05-10T13:39:05;94.43;;;84.03;;
41261;SDS011;29629;52.532;13.352;2023-05-10T13:41:32;86.68;;;77.32;;
41261;SDS011;29629;52.532;13.352;2023-05-10T13:43:59;85.22;;;75.90;;
41261;SDS011;29629;52.532;13.352;2023-05-10T13:46:26;83.35;;;74.60;;
41261;SDS011;29629;52.532;13.352;2023-05-10T13:48:53;105.05;;;88.47;;
41261;SDS011;29629;52.532;13.352;2023-05-10T13:51:20;99.07;;;87.03;;
41261;SDS011;29629;52.532;13.352;2023-05-10T13:53:48;90.32;;;81.07;;
41261;SDS011;29629;52.532;13.352;2023-05-10T13:56:15;95.20;;;84.90;;
41261;SDS011;29629;52.532;13.352;2023-05-10T13:58:42;95.53;;;85.10;;
41261;SDS011;29629;52.532;13.352;2023-05-10T14:01:09;93.78;;;83.43;;
41261;SDS011;29629;52.532;13.352;2023-05-10T14:03:37;95.32;;;84.63;;
41261;SDS011;29629;52.532;13.352;2023-05-10T14:06:04;92.45;;;82.22;;
41261;SDS011;29629;52.532;13.352;2023-05-10T14:08:32;96.50;;;85.72;;
41261;SDS011;29629;52.532;13.352;2023-05-10T14:11:00;95.05;;;84.75;;
41261;SDS011;29629;52.532;13.352;2023-05-10T14:13:27;94.93;;;84.15;;
41261;SDS011;29629;52.532;13.352;2023-05-10T14:15:54;95.35;;;84.53;;